Syosyun — JD2406 — position and weather

sailwx.info

Track history (hours):
 
Tides and Currents Weather Stations Pressure Air Temp Water Temp Dewpoint Dewpoint Depression Visibility Wind Speed Wind Dir Waves Ship Positions

Syosyun

Last reported at 2017-Jan-16 12:15 UTC. Time now 2017-Jan-17 15:11 UTC.
Position N 35°08' E 139°42'.

Length 74 m; draft 4.7 m.

Type: Cargo ship. MMSI: 431000201.

Date/timePositionNaut miles runAvg speedWind from/ knotsBaromVisibWave heightAir tempDewpointWater temp
2017-Jan-16 12:15N 35°08' E 139°42'710.5
2017-Jan-16 11:33N 35°15' E 139°46'1010.1
2017-Jan-16 10:34N 35°25' E 139°44'8 0.2
2017-Jan-15 01:05N 35°22' E 139°53'0 0.0
2017-Jan-14 23:32N 35°22' E 139°53'0 0.0
2017-Jan-14 22:23N 35°22' E 139°53'0 0.0
2017-Jan-14 21:20N 35°22' E 139°53'0 0.0
2017-Jan-14 20:14N 35°22' E 139°53'0 0.0
2017-Jan-14 19:32N 35°22' E 139°53'0 0.0
2017-Jan-14 17:26N 35°22' E 139°53'0 0.1
2017-Jan-14 16:29N 35°22' E 139°53'0 0.0
2017-Jan-14 14:32N 35°22' E 139°53'0 0.0
2017-Jan-14 12:23N 35°22' E 139°53'0 0.1
2017-Jan-14 11:26N 35°22' E 139°53'0 0.1
2017-Jan-14 10:32N 35°22' E 139°53'0 0.0
2017-Jan-14 09:16N 35°22' E 139°53'0 0.0
2017-Jan-14 07:31N 35°22' E 139°53'9 9.2
2017-Jan-14 06:33N 35°31' E 139°53'8 6.3
2017-Jan-14 05:19N 35°38' E 139°48'0 0.0
2017-Jan-14 04:28N 35°38' E 139°48'0 0.0
2017-Jan-14 03:13N 35°38' E 139°48'0 0.0
2017-Jan-13 23:28N 35°38' E 139°48'0 0.0
2017-Jan-13 22:31N 35°38' E 139°48'0 0.0
2017-Jan-13 21:22N 35°38' E 139°48'0 0.0
2017-Jan-13 20:31N 35°38' E 139°48'0 0.0
2017-Jan-13 19:31N 35°38' E 139°48'0 0.0
2017-Jan-13 18:31N 35°38' E 139°48'0 0.0
2017-Jan-13 17:31N 35°38' E 139°48'0 0.0
2017-Jan-13 16:28N 35°38' E 139°48'0 0.0
2017-Jan-13 15:31N 35°38' E 139°48'0 0.0
2017-Jan-13 14:31N 35°38' E 139°48'0 0.0
2017-Jan-13 13:31N 35°38' E 139°48'0 0.0
2017-Jan-13 12:31N 35°38' E 139°48'0 0.0
2017-Jan-13 11:31N 35°38' E 139°48'0 0.0
2017-Jan-13 10:31N 35°38' E 139°48'0 0.0
2017-Jan-13 09:31N 35°38' E 139°48'0 0.0
2017-Jan-13 08:25N 35°38' E 139°48'0 0.0
2017-Jan-13 07:25N 35°38' E 139°48'0 0.0
2017-Jan-13 06:25N 35°38' E 139°48'0 0.0
2017-Jan-13 05:31N 35°38' E 139°48'0 0.0
2017-Jan-13 04:16N 35°38' E 139°48'0 0.0
2017-Jan-13 03:31N 35°38' E 139°48'0 0.0
2017-Jan-13 02:28N 35°38' E 139°48'0 0.0
2017-Jan-13 01:31N 35°38' E 139°48'0 0.0
2017-Jan-13 00:25N 35°38' E 139°48'0 0.0
2017-Jan-12 23:33N 35°38' E 139°48'4 3.9
2017-Jan-12 22:32N 35°35' E 139°52'0 0.1
2017-Jan-12 21:32N 35°35' E 139°52'0 0.0
2017-Jan-12 20:32N 35°35' E 139°52'0 0.0
2017-Jan-12 19:32N 35°35' E 139°52'0 0.0
2017-Jan-12 18:32N 35°35' E 139°52'0 0.0
2017-Jan-12 17:32N 35°35' E 139°52'0 0.0
2017-Jan-12 16:32N 35°35' E 139°52'0 0.1
2017-Jan-12 15:32N 35°35' E 139°52'0 0.1
2017-Jan-12 14:32N 35°35' E 139°52'0 0.1
2017-Jan-12 13:32N 35°35' E 139°52'0 0.0
2017-Jan-12 12:32N 35°35' E 139°52'0 0.0
2017-Jan-12 11:32N 35°35' E 139°52'1 0.9
2017-Jan-12 10:33N 35°34' E 139°52'1010.3
2017-Jan-12 09:33N 35°25' E 139°47'10 9.9
2017-Jan-12 08:33N 35°15' E 139°47'243 9.3
2017-Jan-11 06:33N 34°09' E 135°03'1411.8
2017-Jan-11 05:22N 34°22' E 135°07'1011.6
2017-Jan-11 04:32N 34°29' E 135°15'1010.2
2017-Jan-11 03:33N 34°36' E 135°24'2 0.1
2017-Jan-09 19:33N 34°35' E 135°27'0 0.1
2017-Jan-09 13:29N 34°35' E 135°27'0 0.0
2017-Jan-09 11:29N 34°35' E 135°27'0 0.0
2017-Jan-09 09:05N 34°35' E 135°27'0 0.0
2017-Jan-09 07:05N 34°35' E 135°27'0 0.5
2017-Jan-09 06:32N 34°35' E 135°27'4 3.9
2017-Jan-09 05:27N 34°39' E 135°28'0 0.0
2017-Jan-09 02:33N 34°39' E 135°28'0 0.0
2017-Jan-09 01:09N 34°39' E 135°28'0 0.0
2017-Jan-09 00:03N 34°39' E 135°28'0 0.0
2017-Jan-08 23:15N 34°39' E 135°28'2 3.0
2017-Jan-08 22:34N 34°39' E 135°25'10 9.8
2017-Jan-08 21:33N 34°41' E 135°13'1 0.9
2017-Jan-08 20:22N 34°41' E 135°12'0 0.0
2017-Jan-08 19:22N 34°41' E 135°12'0 0.0
2017-Jan-08 18:22N 34°41' E 135°12'0 0.0
2017-Jan-08 17:28N 34°41' E 135°12'0 0.0
2017-Jan-08 16:28N 34°41' E 135°12'0 0.0
2017-Jan-08 15:22N 34°41' E 135°12'0 0.0
2017-Jan-08 14:28N 34°41' E 135°12'0 0.0
2017-Jan-08 13:28N 34°41' E 135°12'0 0.0
2017-Jan-08 12:28N 34°41' E 135°12'0 0.0
2017-Jan-08 11:28N 34°41' E 135°12'0 0.0
2017-Jan-08 10:22N 34°41' E 135°12'0 0.0
2017-Jan-08 09:28N 34°41' E 135°12'0 0.0
2017-Jan-08 08:28N 34°41' E 135°12'0 0.0
2017-Jan-08 07:22N 34°41' E 135°12'0 0.0
2017-Jan-08 06:28N 34°41' E 135°12'0 0.0
2017-Jan-08 05:28N 34°41' E 135°12'0 0.0
2017-Jan-08 04:28N 34°41' E 135°12'0 0.0
2017-Jan-08 03:28N 34°41' E 135°12'0 0.0
2017-Jan-08 02:22N 34°41' E 135°12'0 0.0
2017-Jan-08 01:28N 34°41' E 135°12'0 0.0
2017-Jan-08 00:28N 34°41' E 135°12'0 0.0
2017-Jan-07 23:28N 34°41' E 135°12'0 0.0
2017-Jan-07 22:28N 34°41' E 135°12'0 0.0
2017-Jan-07 21:22N 34°41' E 135°12'0 0.0
2017-Jan-07 20:28N 34°41' E 135°12'0 0.0
2017-Jan-07 19:28N 34°41' E 135°12'0 0.0
2017-Jan-07 18:28N 34°41' E 135°12'0 0.0
2017-Jan-07 17:28N 34°41' E 135°12'0 0.0
2017-Jan-07 16:28N 34°41' E 135°12'0 0.0
2017-Jan-07 15:22N 34°41' E 135°12'0 0.0
2017-Jan-07 14:22N 34°41' E 135°12'0 0.0
2017-Jan-07 13:22N 34°41' E 135°12'0 0.0
2017-Jan-07 12:28N 34°41' E 135°12'0 0.0
2017-Jan-07 11:28N 34°41' E 135°12'0 0.0
2017-Jan-07 10:28N 34°41' E 135°12'0 0.0
2017-Jan-07 09:28N 34°41' E 135°12'0 0.0
2017-Jan-07 08:28N 34°41' E 135°12'0 0.0
2017-Jan-07 07:28N 34°41' E 135°12'0 0.0
2017-Jan-07 06:28N 34°41' E 135°12'0 0.0
2017-Jan-07 05:28N 34°41' E 135°12'2 2.4
2017-Jan-07 04:33N 34°40' E 135°15'9 8.8
2017-Jan-07 03:33N 34°35' E 135°06'  
Track history (hours):
 
Tides and Currents Weather Stations Pressure Air Temp Water Temp Dewpoint Dewpoint Depression Visibility Wind Speed Wind Dir Waves Ship Positions

Syosyun

Last reported at 2017-Jan-16 12:15 UTC. Time now 2017-Jan-17 15:11 UTC.
Position N 35°08' E 139°42'.

Length 74 m; draft 4.7 m.

Type: Cargo ship. MMSI: 431000201.

Date/timePositionNaut miles runAvg speedWind from/ knotsBaromVisibWave heightAir tempDewpointWater temp
2017-Jan-16 12:15N 35°08' E 139°42'710.5
2017-Jan-16 11:33N 35°15' E 139°46'1010.1
2017-Jan-16 10:34N 35°25' E 139°44'8 0.2
2017-Jan-15 01:05N 35°22' E 139°53'0 0.0
2017-Jan-14 23:32N 35°22' E 139°53'0 0.0
2017-Jan-14 22:23N 35°22' E 139°53'0 0.0
2017-Jan-14 21:20N 35°22' E 139°53'0 0.0
2017-Jan-14 20:14N 35°22' E 139°53'0 0.0
2017-Jan-14 19:32N 35°22' E 139°53'0 0.0
2017-Jan-14 17:26N 35°22' E 139°53'0 0.1
2017-Jan-14 16:29N 35°22' E 139°53'0 0.0
2017-Jan-14 14:32N 35°22' E 139°53'0 0.0
2017-Jan-14 12:23N 35°22' E 139°53'0 0.1
2017-Jan-14 11:26N 35°22' E 139°53'0 0.1
2017-Jan-14 10:32N 35°22' E 139°53'0 0.0
2017-Jan-14 09:16N 35°22' E 139°53'0 0.0
2017-Jan-14 07:31N 35°22' E 139°53'9 9.2
2017-Jan-14 06:33N 35°31' E 139°53'8 6.3
2017-Jan-14 05:19N 35°38' E 139°48'0 0.0
2017-Jan-14 04:28N 35°38' E 139°48'0 0.0
2017-Jan-14 03:13N 35°38' E 139°48'0 0.0
2017-Jan-13 23:28N 35°38' E 139°48'0 0.0
2017-Jan-13 22:31N 35°38' E 139°48'0 0.0
2017-Jan-13 21:22N 35°38' E 139°48'0 0.0
2017-Jan-13 20:31N 35°38' E 139°48'0 0.0
2017-Jan-13 19:31N 35°38' E 139°48'0 0.0
2017-Jan-13 18:31N 35°38' E 139°48'0 0.0
2017-Jan-13 17:31N 35°38' E 139°48'0 0.0
2017-Jan-13 16:28N 35°38' E 139°48'0 0.0
2017-Jan-13 15:31N 35°38' E 139°48'0 0.0
2017-Jan-13 14:31N 35°38' E 139°48'0 0.0
2017-Jan-13 13:31N 35°38' E 139°48'0 0.0
2017-Jan-13 12:31N 35°38' E 139°48'0 0.0
2017-Jan-13 11:31N 35°38' E 139°48'0 0.0
2017-Jan-13 10:31N 35°38' E 139°48'0 0.0
2017-Jan-13 09:31N 35°38' E 139°48'0 0.0
2017-Jan-13 08:25N 35°38' E 139°48'0 0.0
2017-Jan-13 07:25N 35°38' E 139°48'0 0.0
2017-Jan-13 06:25N 35°38' E 139°48'0 0.0
2017-Jan-13 05:31N 35°38' E 139°48'0 0.0
2017-Jan-13 04:16N 35°38' E 139°48'0 0.0
2017-Jan-13 03:31N 35°38' E 139°48'0 0.0
2017-Jan-13 02:28N 35°38' E 139°48'0 0.0
2017-Jan-13 01:31N 35°38' E 139°48'0 0.0
2017-Jan-13 00:25N 35°38' E 139°48'0 0.0
2017-Jan-12 23:33N 35°38' E 139°48'4 3.9
2017-Jan-12 22:32N 35°35' E 139°52'0 0.1
2017-Jan-12 21:32N 35°35' E 139°52'0 0.0
2017-Jan-12 20:32N 35°35' E 139°52'0 0.0
2017-Jan-12 19:32N 35°35' E 139°52'0 0.0
2017-Jan-12 18:32N 35°35' E 139°52'0 0.0
2017-Jan-12 17:32N 35°35' E 139°52'0 0.0
2017-Jan-12 16:32N 35°35' E 139°52'0 0.1
2017-Jan-12 15:32N 35°35' E 139°52'0 0.1
2017-Jan-12 14:32N 35°35' E 139°52'0 0.1
2017-Jan-12 13:32N 35°35' E 139°52'0 0.0
2017-Jan-12 12:32N 35°35' E 139°52'0 0.0
2017-Jan-12 11:32N 35°35' E 139°52'1 0.9
2017-Jan-12 10:33N 35°34' E 139°52'1010.3
2017-Jan-12 09:33N 35°25' E 139°47'10 9.9
2017-Jan-12 08:33N 35°15' E 139°47'243 9.3
2017-Jan-11 06:33N 34°09' E 135°03'1411.8
2017-Jan-11 05:22N 34°22' E 135°07'1011.6
2017-Jan-11 04:32N 34°29' E 135°15'1010.2
2017-Jan-11 03:33N 34°36' E 135°24'2 0.1
2017-Jan-09 19:33N 34°35' E 135°27'0 0.1
2017-Jan-09 13:29N 34°35' E 135°27'0 0.0
2017-Jan-09 11:29N 34°35' E 135°27'0 0.0
2017-Jan-09 09:05N 34°35' E 135°27'0 0.0
2017-Jan-09 07:05N 34°35' E 135°27'0 0.5
2017-Jan-09 06:32N 34°35' E 135°27'4 3.9
2017-Jan-09 05:27N 34°39' E 135°28'0 0.0
2017-Jan-09 02:33N 34°39' E 135°28'0 0.0
2017-Jan-09 01:09N 34°39' E 135°28'0 0.0
2017-Jan-09 00:03N 34°39' E 135°28'0 0.0
2017-Jan-08 23:15N 34°39' E 135°28'2 3.0
2017-Jan-08 22:34N 34°39' E 135°25'10 9.8
2017-Jan-08 21:33N 34°41' E 135°13'1 0.9
2017-Jan-08 20:22N 34°41' E 135°12'0 0.0
2017-Jan-08 19:22N 34°41' E 135°12'0 0.0
2017-Jan-08 18:22N 34°41' E 135°12'0 0.0
2017-Jan-08 17:28N 34°41' E 135°12'0 0.0
2017-Jan-08 16:28N 34°41' E 135°12'0 0.0
2017-Jan-08 15:22N 34°41' E 135°12'0 0.0
2017-Jan-08 14:28N 34°41' E 135°12'0 0.0
2017-Jan-08 13:28N 34°41' E 135°12'0 0.0
2017-Jan-08 12:28N 34°41' E 135°12'0 0.0
2017-Jan-08 11:28N 34°41' E 135°12'0 0.0
2017-Jan-08 10:22N 34°41' E 135°12'0 0.0
2017-Jan-08 09:28N 34°41' E 135°12'0 0.0
2017-Jan-08 08:28N 34°41' E 135°12'0 0.0
2017-Jan-08 07:22N 34°41' E 135°12'0 0.0
2017-Jan-08 06:28N 34°41' E 135°12'0 0.0
2017-Jan-08 05:28N 34°41' E 135°12'0 0.0
2017-Jan-08 04:28N 34°41' E 135°12'0 0.0
2017-Jan-08 03:28N 34°41' E 135°12'0 0.0
2017-Jan-08 02:22N 34°41' E 135°12'0 0.0
2017-Jan-08 01:28N 34°41' E 135°12'0 0.0
2017-Jan-08 00:28N 34°41' E 135°12'0 0.0
2017-Jan-07 23:28N 34°41' E 135°12'0 0.0
2017-Jan-07 22:28N 34°41' E 135°12'0 0.0
2017-Jan-07 21:22N 34°41' E 135°12'0 0.0
2017-Jan-07 20:28N 34°41' E 135°12'0 0.0
2017-Jan-07 19:28N 34°41' E 135°12'0 0.0
2017-Jan-07 18:28N 34°41' E 135°12'0 0.0
2017-Jan-07 17:28N 34°41' E 135°12'0 0.0
2017-Jan-07 16:28N 34°41' E 135°12'0 0.0
2017-Jan-07 15:22N 34°41' E 135°12'0 0.0
2017-Jan-07 14:22N 34°41' E 135°12'0 0.0
2017-Jan-07 13:22N 34°41' E 135°12'0 0.0
2017-Jan-07 12:28N 34°41' E 135°12'0 0.0
2017-Jan-07 11:28N 34°41' E 135°12'0 0.0
2017-Jan-07 10:28N 34°41' E 135°12'0 0.0
2017-Jan-07 09:28N 34°41' E 135°12'0 0.0
2017-Jan-07 08:28N 34°41' E 135°12'0 0.0
2017-Jan-07 07:28N 34°41' E 135°12'0 0.0
2017-Jan-07 06:28N 34°41' E 135°12'0 0.0
2017-Jan-07 05:28N 34°41' E 135°12'2 2.4
2017-Jan-07 04:33N 34°40' E 135°15'9 8.8
2017-Jan-07 03:33N 34°35' E 135°06'  

Dump ship's entire track history